sensor_id;sensor_type;location;lat;lon;timestamp;P1;durP1;ratioP1;P2;durP2;ratioP2
44204;SDS011;30163;42.698;23.344;2023-02-19T00:01:26;37.15;;;16.20;;
44204;SDS011;30163;42.698;23.344;2023-02-19T00:03:54;42.20;;;16.35;;
44204;SDS011;30163;42.698;23.344;2023-02-19T00:06:22;40.03;;;15.00;;
44204;SDS011;30163;42.698;23.344;2023-02-19T00:08:48;36.45;;;14.98;;
44204;SDS011;30163;42.698;23.344;2023-02-19T00:11:15;48.80;;;16.55;;
44204;SDS011;30163;42.698;23.344;2023-02-19T00:13:45;36.50;;;15.35;;
44204;SDS011;30163;42.698;23.344;2023-02-19T00:16:13;33.25;;;14.93;;
44204;SDS011;30163;42.698;23.344;2023-02-19T00:18:40;47.60;;;16.15;;
44204;SDS011;30163;42.698;23.344;2023-02-19T00:21:06;52.15;;;15.98;;
44204;SDS011;30163;42.698;23.344;2023-02-19T00:23:32;39.33;;;15.73;;
44204;SDS011;30163;42.698;23.344;2023-02-19T00:26:05;49.20;;;16.33;;
44204;SDS011;30163;42.698;23.344;2023-02-19T00:28:33;51.20;;;16.52;;
44204;SDS011;30163;42.698;23.344;2023-02-19T00:33:39;48.47;;;16.65;;
44204;SDS011;30163;42.698;23.344;2023-02-19T00:36:05;48.65;;;17.30;;
44204;SDS011;30163;42.698;23.344;2023-02-19T00:38:34;45.92;;;16.50;;
44204;SDS011;30163;42.698;23.344;2023-02-19T00:41:00;46.47;;;17.73;;
44204;SDS011;30163;42.698;23.344;2023-02-19T00:43:46;48.90;;;16.60;;
44204;SDS011;30163;42.698;23.344;2023-02-19T00:46:16;43.05;;;16.83;;
44204;SDS011;30163;42.698;23.344;2023-02-19T00:48:42;40.10;;;17.02;;
44204;SDS011;30163;42.698;23.344;2023-02-19T00:51:08;59.78;;;18.08;;
44204;SDS011;30163;42.698;23.344;2023-02-19T00:53:33;42.67;;;16.25;;
44204;SDS011;30163;42.698;23.344;2023-02-19T00:55:59;39.53;;;17.67;;
44204;SDS011;30163;42.698;23.344;2023-02-19T00:58:24;38.90;;;17.10;;
44204;SDS011;30163;42.698;23.344;2023-02-19T01:00:50;47.42;;;17.13;;
44204;SDS011;30163;42.698;23.344;2023-02-19T01:03:15;47.47;;;17.90;;
44204;SDS011;30163;42.698;23.344;2023-02-19T01:05:41;44.08;;;16.83;;
44204;SDS011;30163;42.698;23.344;2023-02-19T01:08:06;52.33;;;17.15;;
44204;SDS011;30163;42.698;23.344;2023-02-19T01:10:32;38.80;;;17.10;;
44204;SDS011;30163;42.698;23.344;2023-02-19T01:12:57;58.38;;;18.50;;
44204;SDS011;30163;42.698;23.344;2023-02-19T01:15:23;52.55;;;19.02;;
44204;SDS011;30163;42.698;23.344;2023-02-19T01:17:48;44.97;;;17.13;;
44204;SDS011;30163;42.698;23.344;2023-02-19T01:20:14;50.80;;;18.45;;
44204;SDS011;30163;42.698;23.344;2023-02-19T01:22:39;41.53;;;16.45;;
44204;SDS011;30163;42.698;23.344;2023-02-19T01:25:05;48.15;;;17.73;;
44204;SDS011;30163;42.698;23.344;2023-02-19T01:27:30;46.75;;;18.73;;
44204;SDS011;30163;42.698;23.344;2023-02-19T01:29:56;55.65;;;20.50;;
44204;SDS011;30163;42.698;23.344;2023-02-19T01:32:22;47.92;;;19.25;;
44204;SDS011;30163;42.698;23.344;2023-02-19T01:34:47;51.08;;;18.27;;
44204;SDS011;30163;42.698;23.344;2023-02-19T01:37:13;54.53;;;19.50;;
44204;SDS011;30163;42.698;23.344;2023-02-19T01:39:38;45.03;;;17.98;;
44204;SDS011;30163;42.698;23.344;2023-02-19T01:42:04;43.10;;;18.58;;
44204;SDS011;30163;42.698;23.344;2023-02-19T01:47:00;41.75;;;19.10;;
44204;SDS011;30163;42.698;23.344;2023-02-19T01:49:27;47.78;;;17.88;;
44204;SDS011;30163;42.698;23.344;2023-02-19T01:54:23;36.75;;;17.20;;
44204;SDS011;30163;42.698;23.344;2023-02-19T01:56:51;40.22;;;15.75;;
44204;SDS011;30163;42.698;23.344;2023-02-19T01:59:18;42.42;;;16.50;;
44204;SDS011;30163;42.698;23.344;2023-02-19T02:01:44;51.78;;;19.40;;
44204;SDS011;30163;42.698;23.344;2023-02-19T02:04:10;44.85;;;18.30;;
44204;SDS011;30163;42.698;23.344;2023-02-19T02:06:55;43.08;;;17.55;;
44204;SDS011;30163;42.698;23.344;2023-02-19T02:09:26;40.80;;;18.02;;
44204;SDS011;30163;42.698;23.344;2023-02-19T02:12:11;35.35;;;16.95;;
44204;SDS011;30163;42.698;23.344;2023-02-19T02:14:39;43.08;;;17.30;;
44204;SDS011;30163;42.698;23.344;2023-02-19T02:17:12;41.40;;;17.13;;
44204;SDS011;30163;42.698;23.344;2023-02-19T02:25:39;47.03;;;17.50;;
44204;SDS011;30163;42.698;23.344;2023-02-19T02:31:08;41.40;;;17.40;;
44204;SDS011;30163;42.698;23.344;2023-02-19T02:36:42;44.20;;;16.75;;
44204;SDS011;30163;42.698;23.344;2023-02-19T02:39:10;38.10;;;16.38;;
44204;SDS011;30163;42.698;23.344;2023-02-19T02:41:42;41.33;;;15.65;;
44204;SDS011;30163;42.698;23.344;2023-02-19T02:44:08;45.90;;;14.95;;
44204;SDS011;30163;42.698;23.344;2023-02-19T02:46:34;33.50;;;13.65;;
44204;SDS011;30163;42.698;23.344;2023-02-19T02:49:02;27.40;;;13.50;;
44204;SDS011;30163;42.698;23.344;2023-02-19T02:54:04;36.63;;;12.82;;
44204;SDS011;30163;42.698;23.344;2023-02-19T02:56:56;32.47;;;12.38;;
44204;SDS011;30163;42.698;23.344;2023-02-19T02:59:22;34.50;;;14.48;;
44204;SDS011;30163;42.698;23.344;2023-02-19T03:01:53;35.67;;;14.63;;
44204;SDS011;30163;42.698;23.344;2023-02-19T03:07:40;34.75;;;14.02;;
44204;SDS011;30163;42.698;23.344;2023-02-19T03:10:11;31.15;;;14.30;;
44204;SDS011;30163;42.698;23.344;2023-02-19T03:12:40;39.60;;;15.40;;
44204;SDS011;30163;42.698;23.344;2023-02-19T03:15:26;41.78;;;15.07;;
44204;SDS011;30163;42.698;23.344;2023-02-19T03:18:16;42.85;;;16.27;;
44204;SDS011;30163;42.698;23.344;2023-02-19T03:21:00;41.58;;;15.95;;
44204;SDS011;30163;42.698;23.344;2023-02-19T03:23:27;42.05;;;15.82;;
44204;SDS011;30163;42.698;23.344;2023-02-19T03:26:12;45.15;;;19.63;;
44204;SDS011;30163;42.698;23.344;2023-02-19T03:28:39;45.47;;;19.23;;
44204;SDS011;30163;42.698;23.344;2023-02-19T03:31:26;45.17;;;18.83;;
44204;SDS011;30163;42.698;23.344;2023-02-19T03:33:55;46.92;;;18.00;;
44204;SDS011;30163;42.698;23.344;2023-02-19T03:36:22;47.08;;;17.60;;
44204;SDS011;30163;42.698;23.344;2023-02-19T03:38:59;50.25;;;19.85;;
44204;SDS011;30163;42.698;23.344;2023-02-19T03:41:41;48.72;;;20.58;;
44204;SDS011;30163;42.698;23.344;2023-02-19T03:44:20;41.33;;;18.60;;
44204;SDS011;30163;42.698;23.344;2023-02-19T03:49:27;48.45;;;17.52;;
44204;SDS011;30163;42.698;23.344;2023-02-19T03:57:16;50.75;;;20.08;;
44204;SDS011;30163;42.698;23.344;2023-02-19T03:59:58;54.67;;;22.55;;
44204;SDS011;30163;42.698;23.344;2023-02-19T04:02:37;56.10;;;21.98;;
44204;SDS011;30163;42.698;23.344;2023-02-19T04:05:13;55.40;;;24.45;;
44204;SDS011;30163;42.698;23.344;2023-02-19T04:07:48;62.67;;;23.90;;
44204;SDS011;30163;42.698;23.344;2023-02-19T04:10:14;51.72;;;23.40;;
44204;SDS011;30163;42.698;23.344;2023-02-19T04:12:42;56.10;;;23.55;;
44204;SDS011;30163;42.698;23.344;2023-02-19T04:15:14;48.97;;;22.65;;
44204;SDS011;30163;42.698;23.344;2023-02-19T04:17:45;58.57;;;24.97;;
44204;SDS011;30163;42.698;23.344;2023-02-19T04:20:14;53.55;;;23.33;;
44204;SDS011;30163;42.698;23.344;2023-02-19T04:22:41;58.58;;;24.90;;
44204;SDS011;30163;42.698;23.344;2023-02-19T04:25:06;53.72;;;23.08;;
44204;SDS011;30163;42.698;23.344;2023-02-19T04:27:36;53.25;;;21.08;;
44204;SDS011;30163;42.698;23.344;2023-02-19T04:30:03;55.05;;;22.20;;
44204;SDS011;30163;42.698;23.344;2023-02-19T04:32:31;59.30;;;24.38;;
44204;SDS011;30163;42.698;23.344;2023-02-19T04:34:56;44.22;;;21.27;;
44204;SDS011;30163;42.698;23.344;2023-02-19T04:37:22;55.30;;;22.15;;
44204;SDS011;30163;42.698;23.344;2023-02-19T04:39:47;52.55;;;22.40;;
44204;SDS011;30163;42.698;23.344;2023-02-19T04:42:13;62.63;;;23.98;;
44204;SDS011;30163;42.698;23.344;2023-02-19T04:44:38;49.92;;;20.90;;
44204;SDS011;30163;42.698;23.344;2023-02-19T04:47:04;48.38;;;21.83;;
44204;SDS011;30163;42.698;23.344;2023-02-19T04:49:29;51.35;;;20.95;;
44204;SDS011;30163;42.698;23.344;2023-02-19T04:51:55;56.67;;;20.15;;
44204;SDS011;30163;42.698;23.344;2023-02-19T04:54:20;44.70;;;20.48;;
44204;SDS011;30163;42.698;23.344;2023-02-19T04:56:46;56.40;;;21.70;;
44204;SDS011;30163;42.698;23.344;2023-02-19T04:59:11;48.17;;;21.77;;
44204;SDS011;30163;42.698;23.344;2023-02-19T05:01:37;56.47;;;21.92;;
44204;SDS011;30163;42.698;23.344;2023-02-19T05:04:02;43.13;;;20.27;;
44204;SDS011;30163;42.698;23.344;2023-02-19T05:06:28;58.90;;;23.25;;
44204;SDS011;30163;42.698;23.344;2023-02-19T05:08:54;48.55;;;21.63;;
44204;SDS011;30163;42.698;23.344;2023-02-19T05:11:20;44.30;;;19.45;;
44204;SDS011;30163;42.698;23.344;2023-02-19T05:13:47;47.30;;;18.38;;
44204;SDS011;30163;42.698;23.344;2023-02-19T05:16:13;41.95;;;14.45;;
44204;SDS011;30163;42.698;23.344;2023-02-19T05:18:43;32.97;;;15.20;;
44204;SDS011;30163;42.698;23.344;2023-02-19T05:21:09;37.45;;;13.52;;
44204;SDS011;30163;42.698;23.344;2023-02-19T05:23:35;38.40;;;14.40;;
44204;SDS011;30163;42.698;23.344;2023-02-19T05:26:05;31.95;;;13.90;;
44204;SDS011;30163;42.698;23.344;2023-02-19T05:28:31;31.52;;;14.15;;
44204;SDS011;30163;42.698;23.344;2023-02-19T05:30:56;32.13;;;13.48;;
44204;SDS011;30163;42.698;23.344;2023-02-19T05:33:23;27.92;;;12.85;;
44204;SDS011;30163;42.698;23.344;2023-02-19T05:35:50;29.92;;;12.38;;
44204;SDS011;30163;42.698;23.344;2023-02-19T05:38:18;30.27;;;13.05;;
44204;SDS011;30163;42.698;23.344;2023-02-19T05:40:43;26.70;;;11.50;;
44204;SDS011;30163;42.698;23.344;2023-02-19T05:43:09;32.95;;;11.75;;
44204;SDS011;30163;42.698;23.344;2023-02-19T05:45:35;31.83;;;14.10;;
44204;SDS011;30163;42.698;23.344;2023-02-19T05:48:01;21.60;;;10.75;;
44204;SDS011;30163;42.698;23.344;2023-02-19T05:50:28;27.20;;;12.57;;
44204;SDS011;30163;42.698;23.344;2023-02-19T05:52:55;41.78;;;16.33;;
44204;SDS011;30163;42.698;23.344;2023-02-19T05:55:20;40.30;;;16.55;;
44204;SDS011;30163;42.698;23.344;2023-02-19T05:57:46;41.58;;;18.67;;
44204;SDS011;30163;42.698;23.344;2023-02-19T06:00:13;42.28;;;19.85;;
44204;SDS011;30163;42.698;23.344;2023-02-19T06:02:41;50.15;;;19.85;;
44204;SDS011;30163;42.698;23.344;2023-02-19T06:05:06;48.13;;;18.85;;
44204;SDS011;30163;42.698;23.344;2023-02-19T06:07:32;40.58;;;16.30;;
44204;SDS011;30163;42.698;23.344;2023-02-19T06:09:58;53.00;;;17.80;;
44204;SDS011;30163;42.698;23.344;2023-02-19T06:12:24;49.03;;;18.95;;
44204;SDS011;30163;42.698;23.344;2023-02-19T06:14:49;40.92;;;17.40;;
44204;SDS011;30163;42.698;23.344;2023-02-19T06:17:15;41.50;;;18.35;;
44204;SDS011;30163;42.698;23.344;2023-02-19T06:19:41;39.25;;;18.02;;
44204;SDS011;30163;42.698;23.344;2023-02-19T06:22:07;36.83;;;18.02;;
44204;SDS011;30163;42.698;23.344;2023-02-19T06:24:33;39.40;;;18.73;;
44204;SDS011;30163;42.698;23.344;2023-02-19T06:27:04;46.67;;;16.42;;
44204;SDS011;30163;42.698;23.344;2023-02-19T06:29:30;39.22;;;15.93;;
44204;SDS011;30163;42.698;23.344;2023-02-19T06:31:56;32.33;;;14.27;;
44204;SDS011;30163;42.698;23.344;2023-02-19T06:34:22;40.47;;;14.13;;
44204;SDS011;30163;42.698;23.344;2023-02-19T06:36:48;38.88;;;14.40;;
44204;SDS011;30163;42.698;23.344;2023-02-19T06:39:14;41.70;;;14.60;;
44204;SDS011;30163;42.698;23.344;2023-02-19T06:41:39;51.22;;;14.13;;
44204;SDS011;30163;42.698;23.344;2023-02-19T06:44:05;35.53;;;13.05;;
44204;SDS011;30163;42.698;23.344;2023-02-19T06:46:30;40.22;;;13.77;;
44204;SDS011;30163;42.698;23.344;2023-02-19T06:48:56;37.20;;;14.30;;
44204;SDS011;30163;42.698;23.344;2023-02-19T06:51:21;35.22;;;14.23;;
44204;SDS011;30163;42.698;23.344;2023-02-19T06:53:48;44.95;;;11.60;;
44204;SDS011;30163;42.698;23.344;2023-02-19T06:56:24;48.75;;;11.93;;
44204;SDS011;30163;42.698;23.344;2023-02-19T06:58:55;33.00;;;11.02;;
44204;SDS011;30163;42.698;23.344;2023-02-19T07:01:25;29.30;;;11.27;;
44204;SDS011;30163;42.698;23.344;2023-02-19T07:03:51;40.22;;;10.57;;
44204;SDS011;30163;42.698;23.344;2023-02-19T07:06:17;32.17;;;11.45;;
44204;SDS011;30163;42.698;23.344;2023-02-19T07:08:44;37.60;;;10.98;;
44204;SDS011;30163;42.698;23.344;2023-02-19T07:11:09;24.30;;;10.73;;
44204;SDS011;30163;42.698;23.344;2023-02-19T07:13:35;22.42;;;9.85;;
44204;SDS011;30163;42.698;23.344;2023-02-19T07:16:02;26.83;;;9.32;;
44204;SDS011;30163;42.698;23.344;2023-02-19T07:18:30;38.90;;;12.15;;
44204;SDS011;30163;42.698;23.344;2023-02-19T07:21:00;27.67;;;10.85;;
44204;SDS011;30163;42.698;23.344;2023-02-19T07:23:30;24.17;;;10.60;;
44204;SDS011;30163;42.698;23.344;2023-02-19T07:25:55;27.65;;;11.45;;
44204;SDS011;30163;42.698;23.344;2023-02-19T07:28:21;25.15;;;9.88;;
44204;SDS011;30163;42.698;23.344;2023-02-19T07:30:47;22.45;;;9.52;;
44204;SDS011;30163;42.698;23.344;2023-02-19T07:33:12;31.73;;;12.40;;
44204;SDS011;30163;42.698;23.344;2023-02-19T07:35:43;34.90;;;11.55;;
44204;SDS011;30163;42.698;23.344;2023-02-19T07:38:19;22.02;;;9.70;;
44204;SDS011;30163;42.698;23.344;2023-02-19T07:40:55;24.15;;;10.07;;
44204;SDS011;30163;42.698;23.344;2023-02-19T07:43:22;31.65;;;10.23;;
44204;SDS011;30163;42.698;23.344;2023-02-19T07:45:48;27.70;;;10.63;;
44204;SDS011;30163;42.698;23.344;2023-02-19T07:48:14;32.28;;;10.63;;
44204;SDS011;30163;42.698;23.344;2023-02-19T07:50:40;25.42;;;10.00;;
44204;SDS011;30163;42.698;23.344;2023-02-19T07:53:05;20.67;;;9.18;;
44204;SDS011;30163;42.698;23.344;2023-02-19T07:55:31;19.85;;;10.48;;
44204;SDS011;30163;42.698;23.344;2023-02-19T07:57:58;25.42;;;9.20;;
44204;SDS011;30163;42.698;23.344;2023-02-19T08:00:24;22.50;;;10.30;;
44204;SDS011;30163;42.698;23.344;2023-02-19T08:02:50;17.77;;;7.43;;
44204;SDS011;30163;42.698;23.344;2023-02-19T08:05:29;17.70;;;8.00;;
44204;SDS011;30163;42.698;23.344;2023-02-19T08:07:59;13.18;;;6.93;;
44204;SDS011;30163;42.698;23.344;2023-02-19T08:10:25;23.58;;;7.40;;
44204;SDS011;30163;42.698;23.344;2023-02-19T08:13:13;13.77;;;7.13;;
44204;SDS011;30163;42.698;23.344;2023-02-19T08:18:27;16.70;;;6.53;;
44204;SDS011;30163;42.698;23.344;2023-02-19T08:20:54;15.35;;;6.75;;
44204;SDS011;30163;42.698;23.344;2023-02-19T08:23:20;17.20;;;5.70;;
44204;SDS011;30163;42.698;23.344;2023-02-19T08:25:46;27.23;;;7.43;;
44204;SDS011;30163;42.698;23.344;2023-02-19T08:28:12;15.57;;;7.05;;
44204;SDS011;30163;42.698;23.344;2023-02-19T08:30:38;13.95;;;6.72;;
44204;SDS011;30163;42.698;23.344;2023-02-19T08:33:06;13.35;;;6.50;;
44204;SDS011;30163;42.698;23.344;2023-02-19T08:35:35;15.02;;;7.07;;
44204;SDS011;30163;42.698;23.344;2023-02-19T08:38:01;10.18;;;6.15;;
44204;SDS011;30163;42.698;23.344;2023-02-19T08:40:26;20.77;;;6.88;;
44204;SDS011;30163;42.698;23.344;2023-02-19T08:42:52;12.40;;;6.40;;
44204;SDS011;30163;42.698;23.344;2023-02-19T08:45:18;15.68;;;7.28;;
44204;SDS011;30163;42.698;23.344;2023-02-19T08:47:43;14.80;;;6.65;;
44204;SDS011;30163;42.698;23.344;2023-02-19T08:50:09;17.10;;;7.55;;
44204;SDS011;30163;42.698;23.344;2023-02-19T08:52:35;16.42;;;7.65;;
44204;SDS011;30163;42.698;23.344;2023-02-19T08:55:01;17.67;;;7.20;;
44204;SDS011;30163;42.698;23.344;2023-02-19T08:57:28;17.45;;;7.30;;
44204;SDS011;30163;42.698;23.344;2023-02-19T08:59:54;13.75;;;6.60;;
44204;SDS011;30163;42.698;23.344;2023-02-19T09:02:21;15.30;;;7.78;;
44204;SDS011;30163;42.698;23.344;2023-02-19T09:04:47;20.13;;;7.63;;
44204;SDS011;30163;42.698;23.344;2023-02-19T09:07:12;13.95;;;7.32;;
44204;SDS011;30163;42.698;23.344;2023-02-19T09:09:38;19.63;;;6.82;;
44204;SDS011;30163;42.698;23.344;2023-02-19T09:12:08;23.60;;;6.55;;
44204;SDS011;30163;42.698;23.344;2023-02-19T09:14:35;16.13;;;5.45;;
44204;SDS011;30163;42.698;23.344;2023-02-19T09:17:01;17.27;;;7.40;;
44204;SDS011;30163;42.698;23.344;2023-02-19T09:19:28;9.20;;;5.47;;
44204;SDS011;30163;42.698;23.344;2023-02-19T09:21:54;9.13;;;5.22;;
44204;SDS011;30163;42.698;23.344;2023-02-19T09:24:20;10.63;;;5.05;;
44204;SDS011;30163;42.698;23.344;2023-02-19T09:26:52;10.25;;;6.18;;
44204;SDS011;30163;42.698;23.344;2023-02-19T09:29:19;12.25;;;6.18;;
44204;SDS011;30163;42.698;23.344;2023-02-19T09:31:45;12.20;;;5.07;;
44204;SDS011;30163;42.698;23.344;2023-02-19T09:34:10;12.82;;;6.10;;
44204;SDS011;30163;42.698;23.344;2023-02-19T09:36:36;11.45;;;5.90;;
44204;SDS011;30163;42.698;23.344;2023-02-19T09:39:03;8.98;;;5.93;;
44204;SDS011;30163;42.698;23.344;2023-02-19T09:41:38;20.25;;;6.40;;
44204;SDS011;30163;42.698;23.344;2023-02-19T09:44:09;11.75;;;5.78;;
44204;SDS011;30163;42.698;23.344;2023-02-19T09:46:44;12.15;;;5.88;;
44204;SDS011;30163;42.698;23.344;2023-02-19T09:49:18;8.32;;;4.72;;
44204;SDS011;30163;42.698;23.344;2023-02-19T09:54:34;13.43;;;5.70;;
44204;SDS011;30163;42.698;23.344;2023-02-19T09:57:04;8.32;;;5.32;;
44204;SDS011;30163;42.698;23.344;2023-02-19T09:59:41;10.07;;;4.78;;
44204;SDS011;30163;42.698;23.344;2023-02-19T10:02:19;20.27;;;5.65;;
44204;SDS011;30163;42.698;23.344;2023-02-19T10:04:46;20.92;;;6.10;;
44204;SDS011;30163;42.698;23.344;2023-02-19T10:07:17;12.13;;;6.00;;
44204;SDS011;30163;42.698;23.344;2023-02-19T10:09:48;9.63;;;5.38;;
44204;SDS011;30163;42.698;23.344;2023-02-19T10:12:18;29.02;;;6.93;;
44204;SDS011;30163;42.698;23.344;2023-02-19T10:14:50;19.13;;;5.50;;
44204;SDS011;30163;42.698;23.344;2023-02-19T10:17:24;24.63;;;6.13;;
44204;SDS011;30163;42.698;23.344;2023-02-19T10:19:53;13.85;;;5.80;;
44204;SDS011;30163;42.698;23.344;2023-02-19T10:22:19;13.70;;;5.50;;
44204;SDS011;30163;42.698;23.344;2023-02-19T10:24:44;24.45;;;5.82;;
44204;SDS011;30163;42.698;23.344;2023-02-19T10:27:15;12.25;;;5.07;;
44204;SDS011;30163;42.698;23.344;2023-02-19T10:29:42;16.38;;;6.07;;
44204;SDS011;30163;42.698;23.344;2023-02-19T10:32:21;14.95;;;5.82;;
44204;SDS011;30163;42.698;23.344;2023-02-19T10:37:49;14.65;;;6.35;;
44204;SDS011;30163;42.698;23.344;2023-02-19T10:40:25;16.30;;;6.25;;
44204;SDS011;30163;42.698;23.344;2023-02-19T10:42:53;9.38;;;5.55;;
44204;SDS011;30163;42.698;23.344;2023-02-19T10:45:22;13.02;;;5.60;;
44204;SDS011;30163;42.698;23.344;2023-02-19T10:47:50;12.65;;;5.78;;
44204;SDS011;30163;42.698;23.344;2023-02-19T10:50:20;15.05;;;6.60;;
44204;SDS011;30163;42.698;23.344;2023-02-19T10:52:53;13.98;;;6.18;;
44204;SDS011;30163;42.698;23.344;2023-02-19T10:55:34;10.63;;;5.70;;
44204;SDS011;30163;42.698;23.344;2023-02-19T11:01:13;15.50;;;5.75;;
44204;SDS011;30163;42.698;23.344;2023-02-19T11:03:40;9.25;;;5.15;;
44204;SDS011;30163;42.698;23.344;2023-02-19T11:06:07;16.02;;;6.03;;
44204;SDS011;30163;42.698;23.344;2023-02-19T11:08:50;13.63;;;5.18;;
44204;SDS011;30163;42.698;23.344;2023-02-19T11:11:36;8.50;;;5.18;;
44204;SDS011;30163;42.698;23.344;2023-02-19T11:14:20;12.45;;;5.53;;
44204;SDS011;30163;42.698;23.344;2023-02-19T11:16:52;15.43;;;5.85;;
44204;SDS011;30163;42.698;23.344;2023-02-19T11:19:23;13.85;;;6.38;;
44204;SDS011;30163;42.698;23.344;2023-02-19T11:22:01;15.15;;;6.35;;
44204;SDS011;30163;42.698;23.344;2023-02-19T11:24:41;14.30;;;5.70;;
44204;SDS011;30163;42.698;23.344;2023-02-19T11:27:17;15.70;;;5.95;;
44204;SDS011;30163;42.698;23.344;2023-02-19T11:29:44;12.23;;;5.83;;
44204;SDS011;30163;42.698;23.344;2023-02-19T11:34:44;13.35;;;6.13;;
44204;SDS011;30163;42.698;23.344;2023-02-19T11:37:11;13.45;;;5.13;;
44204;SDS011;30163;42.698;23.344;2023-02-19T11:39:46;16.90;;;6.22;;
44204;SDS011;30163;42.698;23.344;2023-02-19T11:45:15;15.00;;;6.80;;
44204;SDS011;30163;42.698;23.344;2023-02-19T11:48:05;9.52;;;5.10;;
44204;SDS011;30163;42.698;23.344;2023-02-19T11:50:56;9.18;;;5.13;;
44204;SDS011;30163;42.698;23.344;2023-02-19T11:56:54;14.85;;;5.63;;
44204;SDS011;30163;42.698;23.344;2023-02-19T12:23:47;17.60;;;5.13;;
44204;SDS011;30163;42.698;23.344;2023-02-19T12:26:26;9.55;;;4.60;;
44204;SDS011;30163;42.698;23.344;2023-02-19T12:31:45;22.52;;;7.75;;
44204;SDS011;30163;42.698;23.344;2023-02-19T12:45:23;17.73;;;8.88;;
44204;SDS011;30163;42.698;23.344;2023-02-19T12:48:12;16.35;;;8.35;;
44204;SDS011;30163;42.698;23.344;2023-02-19T12:50:48;7.38;;;3.90;;
44204;SDS011;30163;42.698;23.344;2023-02-19T12:55:46;13.23;;;7.05;;
44204;SDS011;30163;42.698;23.344;2023-02-19T12:58:14;18.92;;;7.15;;
44204;SDS011;30163;42.698;23.344;2023-02-19T13:00:52;18.00;;;5.40;;
44204;SDS011;30163;42.698;23.344;2023-02-19T13:11:08;8.43;;;4.55;;
44204;SDS011;30163;42.698;23.344;2023-02-19T13:13:37;11.57;;;4.70;;
44204;SDS011;30163;42.698;23.344;2023-02-19T13:16:07;22.58;;;8.48;;
44204;SDS011;30163;42.698;23.344;2023-02-19T13:18:57;17.50;;;7.10;;
44204;SDS011;30163;42.698;23.344;2023-02-19T13:21:26;20.40;;;6.68;;
44204;SDS011;30163;42.698;23.344;2023-02-19T13:24:14;17.55;;;7.10;;
44204;SDS011;30163;42.698;23.344;2023-02-19T13:38:03;15.30;;;6.32;;
44204;SDS011;30163;42.698;23.344;2023-02-19T13:40:32;17.58;;;7.40;;
44204;SDS011;30163;42.698;23.344;2023-02-19T13:43:00;11.98;;;6.30;;
44204;SDS011;30163;42.698;23.344;2023-02-19T13:50:29;22.02;;;6.55;;
44204;SDS011;30163;42.698;23.344;2023-02-19T13:52:57;11.98;;;6.00;;
44204;SDS011;30163;42.698;23.344;2023-02-19T14:00:58;7.90;;;4.45;;
44204;SDS011;30163;42.698;23.344;2023-02-19T14:03:28;12.55;;;4.20;;
44204;SDS011;30163;42.698;23.344;2023-02-19T14:05:59;13.82;;;4.68;;
44204;SDS011;30163;42.698;23.344;2023-02-19T14:14:25;12.52;;;5.35;;
44204;SDS011;30163;42.698;23.344;2023-02-19T14:16:53;14.32;;;6.32;;
44204;SDS011;30163;42.698;23.344;2023-02-19T14:28:05;23.25;;;6.45;;
44204;SDS011;30163;42.698;23.344;2023-02-19T14:30:46;17.17;;;5.82;;
44204;SDS011;30163;42.698;23.344;2023-02-19T14:33:13;16.08;;;5.97;;
44204;SDS011;30163;42.698;23.344;2023-02-19T14:35:45;19.95;;;5.93;;
44204;SDS011;30163;42.698;23.344;2023-02-19T14:38:23;17.10;;;5.50;;
44204;SDS011;30163;42.698;23.344;2023-02-19T14:40:50;22.27;;;5.50;;
44204;SDS011;30163;42.698;23.344;2023-02-19T14:43:17;10.43;;;4.90;;
44204;SDS011;30163;42.698;23.344;2023-02-19T14:45:46;18.33;;;6.07;;
44204;SDS011;30163;42.698;23.344;2023-02-19T14:48:15;9.85;;;5.55;;
44204;SDS011;30163;42.698;23.344;2023-02-19T14:50:45;18.23;;;5.40;;
44204;SDS011;30163;42.698;23.344;2023-02-19T14:53:13;16.63;;;5.10;;
44204;SDS011;30163;42.698;23.344;2023-02-19T14:55:40;12.80;;;5.18;;
44204;SDS011;30163;42.698;23.344;2023-02-19T14:58:10;19.33;;;5.32;;
44204;SDS011;30163;42.698;23.344;2023-02-19T15:00:41;25.75;;;6.03;;
44204;SDS011;30163;42.698;23.344;2023-02-19T15:05:57;16.65;;;8.85;;
44204;SDS011;30163;42.698;23.344;2023-02-19T15:08:32;19.17;;;8.98;;
44204;SDS011;30163;42.698;23.344;2023-02-19T15:11:01;37.42;;;8.35;;
44204;SDS011;30163;42.698;23.344;2023-02-19T15:13:27;11.40;;;6.85;;
44204;SDS011;30163;42.698;23.344;2023-02-19T15:15:54;10.93;;;6.50;;
44204;SDS011;30163;42.698;23.344;2023-02-19T15:18:20;24.05;;;7.18;;
44204;SDS011;30163;42.698;23.344;2023-02-19T15:20:48;18.50;;;7.43;;
44204;SDS011;30163;42.698;23.344;2023-02-19T15:23:19;16.15;;;6.75;;
44204;SDS011;30163;42.698;23.344;2023-02-19T15:25:47;21.55;;;7.38;;
44204;SDS011;30163;42.698;23.344;2023-02-19T15:33:23;21.58;;;7.55;;
44204;SDS011;30163;42.698;23.344;2023-02-19T15:35:52;25.75;;;9.82;;
44204;SDS011;30163;42.698;23.344;2023-02-19T15:38:20;22.30;;;7.78;;
44204;SDS011;30163;42.698;23.344;2023-02-19T15:40:46;19.20;;;9.23;;
44204;SDS011;30163;42.698;23.344;2023-02-19T15:43:19;21.50;;;9.52;;
44204;SDS011;30163;42.698;23.344;2023-02-19T15:45:49;33.83;;;9.45;;
44204;SDS011;30163;42.698;23.344;2023-02-19T15:48:20;39.60;;;9.68;;
44204;SDS011;30163;42.698;23.344;2023-02-19T15:50:50;19.67;;;7.90;;
44204;SDS011;30163;42.698;23.344;2023-02-19T15:53:22;25.38;;;9.05;;
44204;SDS011;30163;42.698;23.344;2023-02-19T15:56:00;28.58;;;10.15;;
44204;SDS011;30163;42.698;23.344;2023-02-19T16:03:49;41.10;;;14.85;;
44204;SDS011;30163;42.698;23.344;2023-02-19T16:06:15;44.22;;;12.32;;
44204;SDS011;30163;42.698;23.344;2023-02-19T16:08:42;24.85;;;9.77;;
44204;SDS011;30163;42.698;23.344;2023-02-19T16:14:31;29.75;;;11.52;;
44204;SDS011;30163;42.698;23.344;2023-02-19T16:22:07;28.60;;;12.40;;
44204;SDS011;30163;42.698;23.344;2023-02-19T16:24:36;29.85;;;11.63;;
44204;SDS011;30163;42.698;23.344;2023-02-19T16:27:07;20.90;;;9.80;;
44204;SDS011;30163;42.698;23.344;2023-02-19T16:29:33;22.73;;;11.23;;
44204;SDS011;30163;42.698;23.344;2023-02-19T16:31:59;20.42;;;9.40;;
44204;SDS011;30163;42.698;23.344;2023-02-19T16:34:38;23.65;;;9.95;;
44204;SDS011;30163;42.698;23.344;2023-02-19T16:42:32;25.92;;;10.30;;
44204;SDS011;30163;42.698;23.344;2023-02-19T16:45:13;23.85;;;10.40;;
44204;SDS011;30163;42.698;23.344;2023-02-19T16:47:39;27.10;;;10.70;;
44204;SDS011;30163;42.698;23.344;2023-02-19T16:50:14;23.95;;;10.25;;
44204;SDS011;30163;42.698;23.344;2023-02-19T16:55:18;22.45;;;10.68;;
44204;SDS011;30163;42.698;23.344;2023-02-19T16:57:43;30.38;;;11.15;;
44204;SDS011;30163;42.698;23.344;2023-02-19T17:00:14;19.13;;;8.57;;
44204;SDS011;30163;42.698;23.344;2023-02-19T17:02:41;17.10;;;8.02;;
44204;SDS011;30163;42.698;23.344;2023-02-19T17:05:06;21.55;;;9.27;;
44204;SDS011;30163;42.698;23.344;2023-02-19T17:07:32;26.00;;;9.55;;
44204;SDS011;30163;42.698;23.344;2023-02-19T17:09:57;25.13;;;9.48;;
44204;SDS011;30163;42.698;23.344;2023-02-19T17:12:23;22.35;;;8.70;;
44204;SDS011;30163;42.698;23.344;2023-02-19T17:14:48;21.10;;;8.73;;
44204;SDS011;30163;42.698;23.344;2023-02-19T17:17:14;20.45;;;8.80;;